createdAt,value
2022-09-20T00:14:02.742Z,83.80
2022-09-20T00:29:07.798Z,84.40
2022-09-20T00:44:44.366Z,86.70
2022-09-20T00:59:51.636Z,87.50
2022-09-20T01:14:58.207Z,87.00
2022-09-20T01:30:07.675Z,87.80
2022-09-20T01:45:17.971Z,87.60
2022-09-20T02:00:24.871Z,87.60
2022-09-20T02:16:18.998Z,88.30
2022-09-20T02:31:34.629Z,91.10
2022-09-20T02:46:47.593Z,89.80
2022-09-20T03:02:02.226Z,90.30
2022-09-20T03:17:20.138Z,89.80
2022-09-20T03:32:37.229Z,90.20
2022-09-20T03:48:07.483Z,90.10
2022-09-20T04:03:34.447Z,90.50
2022-09-20T04:18:44.312Z,90.60
2022-09-20T04:33:51.488Z,90.90
2022-09-20T04:49:27.477Z,90.90
2022-09-20T05:05:08.118Z,91.80
2022-09-20T05:20:36.857Z,91.60
2022-09-20T05:35:47.388Z,91.80
2022-09-20T05:50:59.532Z,91.90
2022-09-20T06:06:14.952Z,91.70
2022-09-20T06:21:30.384Z,92.20
2022-09-20T06:36:55.303Z,91.40
2022-09-20T06:51:59.629Z,92.70
2022-09-20T07:07:08.697Z,91.90
2022-09-20T07:22:14.467Z,93.40
2022-09-20T07:37:19.901Z,93.60
2022-09-20T07:52:24.308Z,94.00
2022-09-20T08:07:29.906Z,93.10
2022-09-20T08:22:34.794Z,92.30
2022-09-20T08:37:39.215Z,93.40
2022-09-20T08:52:45.804Z,93.20
2022-09-20T09:07:50.156Z,93.10
2022-09-20T09:23:03.164Z,92.60
2022-09-20T09:38:18.111Z,92.10
2022-09-20T09:53:24.721Z,92.80
2022-09-20T10:08:38.555Z,91.60
2022-09-20T10:24:04.720Z,91.60
2022-09-20T10:39:14.712Z,90.70
2022-09-20T10:54:35.953Z,91.20
2022-09-20T11:09:44.694Z,90.80
2022-09-20T11:24:53.583Z,90.20
2022-09-20T11:40:02.255Z,89.80
2022-09-20T11:55:28.085Z,88.80
2022-09-20T12:10:35.247Z,89.40
2022-09-20T12:25:41.111Z,89.80
2022-09-20T12:56:25.328Z,88.70
2022-09-20T13:11:36.124Z,85.40
2022-09-20T13:26:45.402Z,85.30
2022-09-20T13:41:50.505Z,83.90
2022-09-20T13:56:57.368Z,83.10
2022-09-20T14:12:03.167Z,78.50
2022-09-20T14:27:18.032Z,76.80
2022-09-20T14:42:29.626Z,69.40
2022-09-20T14:57:34.204Z,81.20
2022-09-20T15:12:38.994Z,80.60
2022-09-20T15:27:44.430Z,77.40
2022-09-20T15:42:48.768Z,83.20
2022-09-20T15:57:53.116Z,84.90
2022-09-20T16:12:57.563Z,86.40
2022-09-20T16:28:01.998Z,86.60
2022-09-20T16:43:08.721Z,90.00
2022-09-20T16:58:13.008Z,89.70
2022-09-20T17:13:17.728Z,90.60
2022-09-20T17:28:22.026Z,90.20
2022-09-20T17:43:27.112Z,90.70
2022-09-20T17:58:34.449Z,91.00
2022-09-20T18:13:39.096Z,91.30
2022-09-20T18:28:48.681Z,93.20
2022-09-20T18:43:54.409Z,92.40
2022-09-20T18:59:01.499Z,92.50
2022-09-20T19:14:11.771Z,92.90
2022-09-20T19:29:22.400Z,93.60
2022-09-20T19:44:34.679Z,93.80
2022-09-20T19:59:39.459Z,93.90
2022-09-20T20:14:55.537Z,94.00
2022-09-20T20:30:00.275Z,94.40
2022-09-20T20:45:05.859Z,94.30
2022-09-20T21:00:11.680Z,95.00
2022-09-20T21:15:17.060Z,95.40
2022-09-20T21:30:21.439Z,95.20
2022-09-20T21:45:27.917Z,94.60
2022-09-20T22:00:33.207Z,95.40
2022-09-20T22:15:37.864Z,95.60
2022-09-20T22:30:42.278Z,95.10
2022-09-20T22:45:46.726Z,94.50
2022-09-20T23:00:51.203Z,94.10
2022-09-20T23:15:56.773Z,94.20
2022-09-20T23:31:04.902Z,94.30
2022-09-20T23:46:10.230Z,94.10
